Terminal Aerodrome Forecast
Issued by NWS

Home | Current Version | Previous Version | Text Only | Print | Product List | Glossary On
Versions: 1 2 3 4 5 6 7 8 9 10 11 12 13 14 15 16 17 18 19 20 21 22 23 24 25 26 27 28 29 30
000
FTAK31 PANC 091128
TAFACD
TAF
PACD 091128Z 0912/1012 14015KT P6SM VCSH SCT015 BKN025
     FM091500 11018G26KT P6SM -SHRA BKN020
     FM092100 11023G35KT P6SM -SHRA SCT015 BKN025
     FM100600 04020G28KT P6SM -RA BKN025=

USA.gov is the U.S. government's official web portal to all federal, state and local government web resources and services.